Time;durP1;ratioP1;P1;durP2;ratioP2;P2;SDS_P1;SDS_P2;PMS_P1;PMS_P2;Temp;Humidity;BMP_temperature;BMP_pressure;BME280_temperature;BME280_humidity;BME280_pressure;Samples;Min_cycle;Max_cycle;Signal;HPM_P1;HPM_P2
2022/06/15 00:00:31;;;;;;;;;;;17.80;60.80;;;16.87;58.41;96210.75;5020156;28;20281;-65
2022/06/15 00:02:56;;;;;;;;;;;17.80;61.20;;;16.84;58.84;96217.31;4993074;28;20360;-65
2022/06/15 00:05:22;;;;;;;;;;;17.70;61.70;;;16.79;58.80;96219.03;5002703;28;19921;-64
2022/06/15 00:07:48;;;;;;;;;;;17.60;62.10;;;16.72;59.88;96218.28;5002351;28;19930;-64
2022/06/15 00:10:13;;;;;;;;;;;17.60;62.30;;;16.67;59.47;96213.66;4996554;28;19917;-64
2022/06/15 00:12:39;;;;;;;;;;;17.50;62.60;;;16.61;60.22;96211.06;5001771;28;19925;-65
2022/06/15 00:15:06;;;;;;;;;;;17.50;63.00;;;16.56;60.23;96218.91;5005142;28;19917;-64
2022/06/15 00:17:31;;;;;;;;;;;17.50;63.00;;;16.48;60.20;96212.03;5023672;28;19960;-64
2022/06/15 00:19:57;;;;;;;;;;;17.30;63.50;;;16.41;59.78;96206.00;4998030;28;19972;-65
2022/06/15 00:22:23;;;;;;;;;;;17.20;63.60;;;16.33;61.32;96209.78;4979781;28;20389;-64
2022/06/15 00:24:49;;;;;;;;;;;17.20;63.90;;;16.29;61.05;96199.81;5018004;28;19935;-65
2022/06/15 00:27:14;;;;;;;;;;;17.20;63.80;;;16.25;61.61;96202.09;5025459;28;20587;-64
2022/06/15 00:29:40;;;;;;;;;;;17.20;63.80;;;16.21;61.35;96198.25;5006900;28;19917;-65
2022/06/15 00:32:06;;;;;;;;;;;17.10;63.70;;;16.16;60.61;96198.13;5035265;28;19917;-65
2022/06/15 00:34:32;;;;;;;;;;;17.10;63.70;;;16.14;61.29;96193.03;5008062;28;19987;-65
2022/06/15 00:36:57;;;;;;;;;;;17.10;64.10;;;16.11;60.90;96196.13;5020973;28;19921;-64
2022/06/15 00:39:23;;;;;;;;;;;17.00;63.70;;;16.08;61.56;96188.63;5028270;28;19921;-65
2022/06/15 00:41:49;;;;;;;;;;;17.00;63.60;;;16.07;61.64;96188.81;5021178;28;19925;-64
2022/06/15 00:44:17;;;;;;;;;;;17.00;63.70;;;16.03;61.47;96192.94;5004566;28;19942;-64
2022/06/15 00:46:43;;;;;;;;;;;17.00;63.80;;;15.99;62.59;96181.16;5024630;28;20339;-65
2022/06/15 00:49:17;;;;;;;;;;;17.00;64.20;;;15.97;63.01;96183.22;5022753;28;19923;-65
2022/06/15 00:51:43;;;;;;;;;;;17.00;64.10;;;15.92;62.67;96181.25;5019384;28;19917;-64
2022/06/15 00:54:09;;;;;;;;;;;16.90;64.40;;;15.90;62.91;96178.00;5023177;28;19928;-65
2022/06/15 00:56:35;;;;;;;;;;;16.90;64.50;;;15.87;61.98;96181.91;4993375;28;19918;-65
2022/06/15 00:59:15;;;;;;;;;;;16.90;64.60;;;15.84;63.04;96179.69;5031786;28;19925;-64
2022/06/15 01:01:41;;;;;;;;;;;16.80;64.50;;;15.79;61.81;96176.88;5010983;28;19959;-65
2022/06/15 01:04:07;;;;;;;;;;;16.70;64.90;;;15.79;63.04;96176.06;5005316;28;19921;-64
2022/06/15 01:06:51;;;;;;;;;;;16.70;65.20;;;15.77;63.18;96170.97;5022407;28;19917;-64
2022/06/15 01:09:21;;;;;;;;;;;16.70;65.40;;;15.74;62.53;96179.38;4996807;28;19932;-65
2022/06/15 01:12:07;;;;;;;;;;;16.70;65.10;;;15.71;62.50;96174.50;5002894;28;19917;-64
2022/06/15 01:14:38;;;;;;;;;;;16.70;65.40;;;15.66;63.08;96174.34;5008816;28;20044;-65
2022/06/15 01:17:14;;;;;;;;;;;16.60;65.40;;;15.62;63.34;96178.47;5017035;28;19924;-65
2022/06/15 01:20:06;;;;;;;;;;;16.60;65.80;;;15.58;63.18;96171.94;5016683;28;19921;-64
2022/06/15 01:23:14;;;;;;;;;;;16.50;66.00;;;15.53;62.57;96175.25;5024165;28;19917;-65
2022/06/15 01:26:17;;;;;;;;;;;16.40;66.00;;;15.47;63.23;96170.03;5019086;28;19917;-65
2022/06/15 01:28:46;;;;;;;;;;;16.40;66.50;;;15.42;63.99;96164.56;5025367;28;19917;-64
2022/06/15 01:31:31;;;;;;;;;;;16.40;66.50;;;15.39;63.88;96160.50;5013209;28;20388;-64
2022/06/15 01:34:11;;;;;;;;;;;16.30;66.70;;;15.33;64.25;96156.88;5032818;28;19921;-64
2022/06/15 01:36:51;;;;;;;;;;;16.30;66.60;;;15.30;64.46;96157.31;5011689;28;19924;-64
2022/06/15 01:39:27;;;;;;;;;;;16.20;66.60;;;15.28;63.16;96163.84;5033431;28;19916;-64
2022/06/15 01:42:14;;;;;;;;;;;16.20;66.70;;;15.24;64.53;96163.47;5020790;28;19932;-64
2022/06/15 01:44:41;;;;;;;;;;;16.20;66.70;;;15.19;65.32;96159.88;4994256;28;19924;-64
2022/06/15 01:47:16;;;;;;;;;;;16.10;66.70;;;15.15;64.50;96164.75;5030849;28;19923;-67
2022/06/15 01:50:01;;;;;;;;;;;16.10;66.60;;;15.11;64.42;96166.22;5033814;28;19917;-64
2022/06/15 01:52:29;;;;;;;;;;;16.10;66.70;;;15.04;64.08;96157.53;5017025;28;19921;-64
2022/06/15 01:55:25;;;;;;;;;;;16.00;66.90;;;15.01;64.71;96163.25;5015408;28;19916;-64
2022/06/15 01:57:51;;;;;;;;;;;16.00;67.30;;;14.98;64.04;96168.97;5024519;28;19925;-64
2022/06/15 02:00:17;;;;;;;;;;;15.90;67.40;;;14.92;64.61;96165.31;5021871;28;19921;-65
2022/06/15 02:02:49;;;;;;;;;;;15.80;67.40;;;14.88;64.95;96158.84;5042652;28;19924;-64
2022/06/15 02:05:18;;;;;;;;;;;15.80;67.70;;;14.84;64.59;96162.13;5006371;28;19917;-64
2022/06/15 02:07:59;;;;;;;;;;;15.70;67.60;;;14.79;65.13;96154.84;4993438;28;20380;-64
2022/06/15 02:10:33;;;;;;;;;;;15.80;67.90;;;14.79;65.83;96159.31;5019645;28;20368;-64
2022/06/15 02:13:05;;;;;;;;;;;15.70;67.80;;;14.73;66.07;96160.19;5027701;28;20006;-64
2022/06/15 02:15:31;;;;;;;;;;;15.80;67.70;;;14.65;65.12;96145.34;5023732;28;20019;-64
2022/06/15 02:17:58;;;;;;;;;;;15.60;67.50;;;14.60;65.85;96151.28;5010535;28;19971;-63
2022/06/15 02:20:27;;;;;;;;;;;15.50;67.70;;;14.52;64.38;96151.53;5008009;28;20277;-63
2022/06/15 02:22:53;;;;;;;;;;;15.40;67.70;;;14.46;65.57;96149.72;5011845;28;19921;-63
2022/06/15 02:25:20;;;;;;;;;;;15.40;68.10;;;14.40;65.10;96148.72;5008488;28;20014;-63
2022/06/15 02:27:46;;;;;;;;;;;15.20;68.50;;;14.37;65.78;96145.69;5005168;28;20363;-63
2022/06/15 02:30:19;;;;;;;;;;;15.30;68.50;;;14.29;65.89;96132.72;5022419;28;19921;-63
2022/06/15 02:32:46;;;;;;;;;;;15.30;68.70;;;14.28;66.82;96136.38;5000864;28;19956;-63
2022/06/15 02:35:11;;;;;;;;;;;15.20;68.90;;;14.24;66.13;96130.66;5032436;28;19939;-63
2022/06/15 02:37:37;;;;;;;;;;;15.30;69.00;;;14.23;66.37;96133.53;5033454;28;19917;-63
2022/06/15 02:40:03;;;;;;;;;;;15.20;69.10;;;14.19;67.10;96125.19;5038617;28;19939;-63
2022/06/15 02:42:34;;;;;;;;;;;15.20;69.20;;;14.19;66.41;96132.31;5017917;28;19920;-63
2022/06/15 02:45:03;;;;;;;;;;;15.10;69.40;;;14.17;66.85;96129.09;5026206;28;19917;-63
2022/06/15 02:47:30;;;;;;;;;;;15.10;69.40;;;14.13;67.35;96138.47;5032078;28;20407;-63
2022/06/15 02:49:56;;;;;;;;;;;15.10;69.20;;;14.07;66.76;96140.94;5031561;28;19960;-62
2022/06/15 02:52:23;;;;;;;;;;;15.10;69.40;;;14.02;66.96;96126.69;5003023;28;19956;-63
2022/06/15 02:54:51;;;;;;;;;;;15.10;69.20;;;14.01;67.61;96133.81;4989966;28;19933;-63
2022/06/15 02:57:17;;;;;;;;;;;15.10;69.20;;;13.99;67.21;96129.75;4996646;28;19917;-63
2022/06/15 02:59:45;;;;;;;;;;;15.10;69.50;;;13.97;66.86;96135.25;5005595;28;20348;-63
2022/06/15 03:02:14;;;;;;;;;;;15.00;69.50;;;13.94;66.92;96140.97;4992227;28;20012;-62
2022/06/15 03:04:46;;;;;;;;;;;15.00;69.60;;;13.93;67.62;96138.53;5030042;28;20321;-63
2022/06/15 03:07:12;;;;;;;;;;;14.90;69.80;;;13.90;67.52;96134.47;5007961;28;19917;-63
2022/06/15 03:09:38;;;;;;;;;;;14.90;70.00;;;13.88;68.48;96136.53;5008005;28;19917;-63
2022/06/15 03:12:04;;;;;;;;;;;14.90;70.30;;;13.83;67.83;96133.69;5011299;28;19927;-63
2022/06/15 03:14:30;;;;;;;;;;;14.90;70.20;;;13.78;68.63;96130.84;5020968;28;20296;-62
2022/06/15 03:16:57;;;;;;;;;;;14.80;70.50;;;13.77;68.94;96135.31;4992135;28;19921;-63
2022/06/15 03:19:23;;;;;;;;;;;14.80;70.60;;;13.74;69.37;96129.63;5024149;28;19920;-63
2022/06/15 03:21:48;;;;;;;;;;;14.80;70.90;;;13.71;69.48;96136.16;5016724;28;20063;-63
2022/06/15 03:24:14;;;;;;;;;;;14.80;70.90;;;13.69;68.75;96134.75;5003386;28;19917;-63
2022/06/15 03:26:40;;;;;;;;;;;14.70;71.10;;;13.67;69.45;96142.88;5007107;28;19925;-63
2022/06/15 03:29:06;;;;;;;;;;;14.70;71.20;;;13.62;68.50;96129.47;5022766;28;20300;-63
2022/06/15 03:31:32;;;;;;;;;;;14.60;71.40;;;13.62;69.80;96131.31;5016578;28;19929;-62
2022/06/15 03:33:58;;;;;;;;;;;14.60;71.60;;;13.59;69.24;96137.03;5017929;28;19917;-63
2022/06/15 03:36:24;;;;;;;;;;;14.60;71.60;;;13.59;70.08;96140.47;5007942;28;19939;-63
2022/06/15 03:38:49;;;;;;;;;;;14.60;71.70;;;13.55;68.68;96143.72;5002344;28;19925;-63
2022/06/15 03:41:15;;;;;;;;;;;14.60;71.60;;;13.51;69.27;96137.22;5020214;28;19955;-63
2022/06/15 03:43:41;;;;;;;;;;;14.50;71.50;;;13.48;68.85;96135.81;4980576;28;19924;-63
2022/06/15 03:46:07;;;;;;;;;;;14.40;71.60;;;13.45;68.91;96136.22;5023515;28;19921;-64
2022/06/15 03:48:32;;;;;;;;;;;14.40;71.60;;;13.41;68.99;96135.81;5021129;28;19917;-63
2022/06/15 03:50:58;;;;;;;;;;;14.40;71.50;;;13.38;69.88;96133.59;5020467;28;20401;-64
2022/06/15 03:53:24;;;;;;;;;;;14.50;71.50;;;13.37;70.12;96134.63;5029223;28;19931;-63
2022/06/15 03:55:49;;;;;;;;;;;14.50;71.70;;;13.37;70.19;96124.03;5003139;28;20011;-64
2022/06/15 03:58:17;;;;;;;;;;;14.50;72.00;;;13.35;70.63;96114.66;5008957;28;19912;-65
2022/06/15 04:00:43;;;;;;;;;;;14.50;72.30;;;13.37;71.01;96123.22;5002226;28;19925;-64
2022/06/15 04:03:09;;;;;;;;;;;14.50;72.40;;;13.33;70.74;96114.88;5036425;28;20404;-63
2022/06/15 04:05:39;;;;;;;;;;;14.50;72.70;;;13.37;71.66;96126.69;5008148;28;19921;-61
2022/06/15 04:10:49;;;;;;;;;;;14.60;72.80;;;13.46;72.34;96133.38;5026148;28;20309;-62
2022/06/15 04:13:15;;;;;;;;;;;14.60;72.70;;;13.48;72.04;96138.44;5016639;28;19920;-62
2022/06/15 04:15:42;;;;;;;;;;;14.70;72.70;;;13.50;72.03;96139.03;5006727;28;20395;-62
2022/06/15 04:18:07;;;;;;;;;;;14.70;72.80;;;13.52;71.23;96136.19;5026321;28;19913;-62
2022/06/15 04:20:33;;;;;;;;;;;14.80;72.40;;;13.58;71.95;96136.22;5015196;28;19921;-62
2022/06/15 04:23:28;;;;;;;;;;;14.90;72.40;;;13.62;71.67;96141.88;5025453;28;19921;-62
2022/06/15 04:25:58;;;;;;;;;;;14.90;72.20;;;13.64;71.56;96135.38;4995073;28;19929;-62
2022/06/15 04:28:24;;;;;;;;;;;15.00;72.10;;;13.66;71.40;96130.69;5032451;28;20094;-62
2022/06/15 04:30:49;;;;;;;;;;;15.00;71.90;;;13.70;71.54;96139.00;4999911;28;20008;-64
2022/06/15 04:33:16;;;;;;;;;;;15.00;72.00;;;13.69;71.61;96143.47;5030764;28;19917;-62
2022/06/15 04:35:42;;;;;;;;;;;15.00;72.20;;;13.74;71.60;96141.03;5045050;28;19924;-62
2022/06/15 04:38:08;;;;;;;;;;;15.10;72.10;;;13.79;71.24;96137.75;5018325;28;20520;-64
2022/06/15 04:40:34;;;;;;;;;;;15.10;72.10;;;13.83;72.48;96149.56;5010175;28;19921;-62
2022/06/15 04:42:59;;;;;;;;;;;15.20;72.20;;;13.88;71.26;96144.47;5019745;28;19921;-62
2022/06/15 04:45:25;;;;;;;;;;;15.20;72.20;;;13.92;72.30;96158.88;5021814;28;19983;-62
2022/06/15 04:47:51;;;;;;;;;;;15.30;72.20;;;13.96;71.88;96153.97;5023284;28;19928;-63
2022/06/15 04:50:17;;;;;;;;;;;15.30;72.40;;;13.98;72.68;96152.75;5014093;28;19917;-62
2022/06/15 04:52:44;;;;;;;;;;;15.40;72.20;;;14.02;71.64;96153.94;4990782;28;19920;-62
2022/06/15 04:55:11;;;;;;;;;;;15.40;71.40;;;14.05;71.83;96150.91;5038947;28;19917;-62
2022/06/15 04:57:36;;;;;;;;;;;15.40;71.60;;;14.09;72.00;96157.41;5024012;28;20004;-62
2022/06/15 05:00:05;;;;;;;;;;;15.40;71.60;;;14.14;72.66;96155.97;5045151;28;20028;-63
2022/06/15 05:02:31;;;;;;;;;;;15.50;71.80;;;14.19;71.20;96154.31;5029268;28;19985;-63
2022/06/15 05:04:59;;;;;;;;;;;15.60;71.50;;;14.24;71.53;96157.13;5022341;28;19917;-64
2022/06/15 05:07:25;;;;;;;;;;;15.70;71.40;;;14.30;72.17;96150.19;5006110;28;19921;-62
2022/06/15 05:09:51;;;;;;;;;;;15.80;71.30;;;14.34;71.55;96159.34;5017221;28;19925;-63
2022/06/15 05:12:18;;;;;;;;;;;15.80;70.90;;;14.41;70.82;96166.22;5018749;28;19917;-64
2022/06/15 05:14:47;;;;;;;;;;;15.90;71.10;;;14.46;71.27;96170.91;5004737;28;19918;-66
2022/06/15 05:17:17;;;;;;;;;;;15.90;71.20;;;14.54;72.37;96161.91;4995525;28;19917;-66
2022/06/15 05:19:42;;;;;;;;;;;16.00;71.10;;;14.62;71.66;96159.00;5015925;28;19952;-64
2022/06/15 05:22:08;;;;;;;;;;;16.20;70.80;;;14.69;71.87;96157.94;5014718;28;20491;-63
2022/06/15 05:24:34;;;;;;;;;;;16.30;70.40;;;14.81;70.16;96165.22;5030870;28;19923;-64
2022/06/15 05:27:00;;;;;;;;;;;16.40;69.80;;;14.91;69.76;96163.72;5000345;28;19925;-64
2022/06/15 05:29:25;;;;;;;;;;;16.60;69.20;;;15.01;71.13;96153.47;5047701;28;19917;-61
2022/06/15 05:31:52;;;;;;;;;;;16.60;68.80;;;15.15;70.68;96143.56;5030276;28;20073;-61
2022/06/15 05:34:17;;;;;;;;;;;16.90;69.10;;;15.29;70.87;96154.88;5027661;28;20303;-63
2022/06/15 05:36:43;;;;;;;;;;;17.00;69.40;;;15.43;70.40;96147.63;5030379;28;19916;-62
2022/06/15 05:39:09;;;;;;;;;;;17.20;68.60;;;15.51;69.58;96153.44;4998679;28;19921;-62
2022/06/15 05:41:34;;;;;;;;;;;17.20;67.90;;;15.58;69.70;96148.06;5011259;28;19922;-64
2022/06/15 05:46:30;;;;;;;;;;;17.30;68.50;;;15.72;69.49;96151.44;5031774;28;19932;-64
2022/06/15 05:48:57;;;;;;;;;;;17.30;68.00;;;15.75;69.66;96149.16;5034441;28;19952;-62
2022/06/15 05:51:23;;;;;;;;;;;17.30;67.80;;;15.78;69.51;96143.41;5013377;28;19941;-63
2022/06/15 05:53:48;;;;;;;;;;;17.40;68.40;;;15.89;69.50;96149.84;4996784;28;19925;-63
2022/06/15 05:56:14;;;;;;;;;;;17.60;68.20;;;15.98;70.24;96153.00;4996356;28;19925;-60
2022/06/15 05:58:40;;;;;;;;;;;17.60;67.70;;;16.07;70.08;96141.06;5007611;28;19922;-59
2022/06/15 06:01:10;;;;;;;;;;;17.80;67.90;;;16.19;69.65;96145.41;5044982;28;20300;-60
2022/06/15 06:03:36;;;;;;;;;;;18.00;67.50;;;16.36;68.77;96150.13;5011761;28;19972;-62
2022/06/15 06:06:02;;;;;;;;;;;18.20;66.20;;;16.52;68.41;96149.47;5038878;28;19917;-61
2022/06/15 06:08:27;;;;;;;;;;;18.50;65.20;;;16.72;67.48;96152.69;5029512;28;20329;-64
2022/06/15 06:10:53;;;;;;;;;;;18.70;64.00;;;16.90;66.22;96151.03;5029333;28;19920;-66
2022/06/15 06:13:19;;;;;;;;;;;18.90;62.80;;;17.11;65.93;96132.72;5024954;28;20292;-61
2022/06/15 06:15:44;;;;;;;;;;;19.10;61.80;;;17.35;65.78;96148.69;5027422;28;19927;-63
2022/06/15 06:18:10;;;;;;;;;;;19.40;61.40;;;17.58;64.74;96148.69;5031027;28;19924;-61
2022/06/15 06:20:36;;;;;;;;;;;19.60;60.70;;;17.80;64.11;96151.59;5014352;28;19922;-62
2022/06/15 06:23:01;;;;;;;;;;;19.90;59.70;;;18.03;64.31;96158.75;5006588;28;19923;-65
2022/06/15 06:25:28;;;;;;;;;;;20.10;59.30;;;18.20;63.63;96146.34;5020352;28;19987;-60
2022/06/15 06:27:54;;;;;;;;;;;20.30;58.80;;;18.34;62.55;96154.88;5014575;28;19921;-63
2022/06/15 06:30:21;;;;;;;;;;;20.50;57.00;;;18.46;63.23;96157.50;5017659;28;19940;-63
2022/06/15 06:32:48;;;;;;;;;;;20.60;58.00;;;18.61;62.33;96147.13;5004747;28;19916;-62
2022/06/15 06:35:14;;;;;;;;;;;20.90;56.30;;;18.78;61.20;96149.84;5020726;28;20020;-61
2022/06/15 06:37:39;;;;;;;;;;;21.10;56.30;;;18.88;62.16;96150.06;5013846;28;19917;-62
2022/06/15 06:40:05;;;;;;;;;;;21.10;56.30;;;19.01;61.49;96156.91;5042920;28;19921;-64
2022/06/15 06:42:31;;;;;;;;;;;21.10;55.70;;;19.09;60.80;96156.53;5028634;28;19921;-62
2022/06/15 06:44:57;;;;;;;;;;;21.30;54.70;;;19.20;60.65;96159.13;5007990;28;19917;-62
2022/06/15 06:47:22;;;;;;;;;;;21.50;55.50;;;19.33;60.24;96155.34;5016799;28;20360;-62
2022/06/15 06:49:48;;;;;;;;;;;21.60;54.10;;;19.44;59.75;96151.78;5017905;28;19945;-62
2022/06/15 06:52:14;;;;;;;;;;;21.70;53.70;;;19.56;60.79;96147.19;5015760;28;19943;-62
2022/06/15 06:54:39;;;;;;;;;;;22.00;54.40;;;19.68;58.50;96156.97;5012832;28;19928;-62
2022/06/15 06:57:05;;;;;;;;;;;22.10;53.20;;;19.79;60.41;96161.41;5020848;28;20368;-63
2022/06/15 06:59:30;;;;;;;;;;;22.30;53.50;;;19.92;59.23;96154.91;5015162;28;19918;-62
2022/06/15 07:01:56;;;;;;;;;;;22.60;52.90;;;20.07;59.83;96155.91;5010260;28;19921;-63
2022/06/15 07:04:22;;;;;;;;;;;22.90;52.00;;;20.21;57.90;96148.34;5025067;28;20333;-62
2022/06/15 07:06:48;;;;;;;;;;;23.10;50.50;;;20.39;58.77;96153.41;4977985;28;19917;-63
2022/06/15 07:09:13;;;;;;;;;;;23.50;50.50;;;20.56;58.83;96150.66;5025526;28;19917;-64
2022/06/15 07:11:43;;;;;;;;;;;23.70;50.50;;;20.76;59.48;96147.41;5011269;28;20700;-64
2022/06/15 07:14:09;;;;;;;;;;;24.10;50.60;;;20.90;58.74;96153.16;5027879;28;19998;-66
2022/06/15 07:16:35;;;;;;;;;;;24.10;49.60;;;21.07;57.85;96153.88;4989498;28;19917;-63
2022/06/15 07:19:00;;;;;;;;;;;24.40;49.80;;;21.21;56.45;96154.25;4974240;28;19917;-63
2022/06/15 07:21:26;;;;;;;;;;;24.50;47.90;;;21.37;57.16;96148.78;4999332;28;19963;-63
2022/06/15 07:23:55;;;;;;;;;;;24.60;48.00;;;21.54;57.51;96150.53;4988877;28;19918;-63
2022/06/15 07:26:23;;;;;;;;;;;24.90;49.10;;;21.75;56.47;96144.25;5008117;28;19924;-61
2022/06/15 07:28:49;;;;;;;;;;;25.10;47.20;;;21.91;55.75;96148.63;5011232;28;19918;-65
2022/06/15 07:31:35;;;;;;;;;;;25.30;46.50;;;22.06;54.56;96152.50;4995838;28;19917;-64
2022/06/15 07:34:00;;;;;;;;;;;25.20;45.40;;;22.16;53.49;96150.66;5004577;28;19917;-63
2022/06/15 07:36:26;;;;;;;;;;;25.40;44.90;;;22.27;53.59;96152.31;5013035;28;19913;-62
2022/06/15 07:38:53;;;;;;;;;;;25.60;44.60;;;22.40;53.01;96156.38;4990535;28;19921;-62
2022/06/15 07:41:18;;;;;;;;;;;25.70;43.80;;;22.56;54.06;96151.88;5002025;28;20360;-63
2022/06/15 07:43:44;;;;;;;;;;;26.10;44.40;;;22.72;52.50;96147.38;5014964;28;19941;-64
2022/06/15 07:46:10;;;;;;;;;;;26.30;43.30;;;22.92;53.33;96144.78;4998691;28;20283;-61
2022/06/15 07:51:31;;;;;;;;;;;26.70;42.40;;;23.32;51.89;96145.91;5036189;28;19964;-65
2022/06/15 07:53:57;;;;;;;;;;;26.90;42.50;;;23.48;51.89;96142.13;5027763;28;19921;-62
2022/06/15 07:56:23;;;;;;;;;;;27.10;42.30;;;23.64;51.67;96142.94;5033733;28;19913;-62
2022/06/15 07:58:48;;;;;;;;;;;27.20;42.40;;;23.77;51.67;96142.41;5014018;28;19923;-63
2022/06/15 08:01:14;;;;;;;;;;;27.20;42.00;;;23.97;51.10;96136.16;5029083;28;19932;-64
2022/06/15 08:03:39;;;;;;;;;;;27.60;42.00;;;24.10;51.29;96144.47;5015303;28;20392;-65
2022/06/15 08:06:05;;;;;;;;;;;27.50;41.90;;;24.26;50.62;96144.44;4986416;28;19924;-65
2022/06/15 08:08:31;;;;;;;;;;;27.50;41.40;;;24.39;51.18;96150.03;5008227;28;19918;-63
2022/06/15 08:10:56;;;;;;;;;;;27.80;42.30;;;24.49;50.79;96149.22;5002313;28;19939;-64
2022/06/15 08:13:22;;;;;;;;;;;27.90;41.70;;;24.68;50.37;96141.31;5008905;28;19921;-61
2022/06/15 08:15:48;;;;;;;;;;;28.20;40.30;;;24.85;50.42;96136.34;5024528;28;19917;-64
2022/06/15 08:18:16;;;;;;;;;;;28.50;41.00;;;25.03;50.30;96133.03;4993184;28;19939;-64
2022/06/15 08:20:56;;;;;;;;;;;28.80;40.90;;;25.24;50.76;96135.59;5038841;28;20045;-61
2022/06/15 08:23:23;;;;;;;;;;;29.10;40.60;;;25.45;49.50;96139.72;5020842;28;20360;-61
2022/06/15 08:25:50;;;;;;;;;;;29.40;39.40;;;25.67;49.19;96130.38;5014112;28;19917;-64
2022/06/15 08:28:18;;;;;;;;;;;29.60;39.00;;;25.85;47.61;96132.41;5017825;28;19995;-61
2022/06/15 08:30:44;;;;;;;;;;;29.80;37.20;;;25.99;47.14;96127.13;5021769;28;19917;-60
2022/06/15 08:33:10;;;;;;;;;;;29.90;37.00;;;26.20;46.95;96121.22;5032383;28;19943;-60
2022/06/15 08:35:38;;;;;;;;;;;30.20;36.60;;;26.33;47.57;96119.72;5032541;28;19917;-60
2022/06/15 08:38:06;;;;;;;;;;;30.30;37.10;;;26.52;46.88;96119.78;5033353;28;19917;-60
2022/06/15 08:40:36;;;;;;;;;;;30.30;36.60;;;26.69;46.51;96114.69;5019250;28;19927;-61
2022/06/15 08:43:12;;;;;;;;;;;30.50;36.20;;;26.93;47.56;96114.63;5025681;28;20000;-64
2022/06/15 08:45:41;;;;;;;;;;;30.90;37.30;;;27.21;45.58;96110.19;5006505;28;19920;-66
2022/06/15 08:48:44;;;;;;;;;;;31.10;35.20;;;27.51;45.25;96108.88;5014433;28;19917;-62
2022/06/15 08:51:48;;;;;;;;;;;31.30;35.00;;;27.83;45.25;96115.38;5036192;28;20030;-63
2022/06/15 08:54:29;;;;;;;;;;;31.50;35.20;;;28.16;43.69;96108.00;4986930;28;19979;-62
2022/06/15 08:57:14;;;;;;;;;;;31.70;34.50;;;28.48;43.64;96110.59;4986396;28;19931;-64
2022/06/15 08:59:55;;;;;;;;;;;31.90;34.20;;;28.84;43.67;96110.63;5001630;28;20348;-63
2022/06/15 09:02:31;;;;;;;;;;;32.20;34.00;;;29.09;42.50;96112.00;5003182;28;19917;-60
2022/06/15 09:05:02;;;;;;;;;;;32.30;33.60;;;29.30;41.10;96100.66;5025074;28;19922;-64
2022/06/15 09:08:02;;;;;;;;;;;32.20;32.10;;;29.52;43.08;96111.53;5022515;28;19936;-63
2022/06/15 09:10:33;;;;;;;;;;;32.50;34.50;;;29.74;40.97;96108.78;5010632;28;20336;-64
2022/06/15 09:13:20;;;;;;;;;;;32.60;32.80;;;29.97;42.04;96106.81;5011296;28;20355;-63
2022/06/15 09:15:58;;;;;;;;;;;33.00;33.00;;;30.17;40.55;96113.63;5007011;28;19921;-64
2022/06/15 09:18:32;;;;;;;;;;;33.20;31.90;;;30.36;39.96;96102.53;5026447;28;19924;-64
2022/06/15 09:21:17;;;;;;;;;;;33.40;31.50;;;30.57;41.54;96102.75;5039648;28;19975;-63
2022/06/15 09:23:44;;;;;;;;;;;33.60;32.20;;;30.76;40.40;96103.25;5029694;28;19925;-66
2022/06/15 09:26:18;;;;;;;;;;;33.80;31.60;;;30.87;39.60;96101.84;5028704;28;19917;-63
2022/06/15 09:28:46;;;;;;;;;;;33.80;31.90;;;30.87;38.12;96095.59;5009518;28;19927;-63
2022/06/15 09:31:18;;;;;;;;;;;33.60;30.00;;;31.06;37.59;96105.06;5014518;28;19992;-63
2022/06/15 09:33:51;;;;;;;;;;;34.20;29.90;;;31.15;37.16;96104.22;5014958;28;20020;-64
2022/06/15 09:36:44;;;;;;;;;;;34.00;28.80;;;31.33;39.27;96103.94;5036838;28;20605;-63
2022/06/15 09:39:09;;;;;;;;;;;34.50;31.30;;;31.53;39.89;96102.47;5025230;28;19921;-63
2022/06/15 09:42:09;;;;;;;;;;;34.80;31.50;;;31.68;39.63;96104.66;5025639;28;20360;-61
2022/06/15 09:44:53;;;;;;;;;;;34.90;31.90;;;31.95;38.47;96102.72;5011066;28;20376;-63
2022/06/15 09:47:44;;;;;;;;;;;35.30;30.40;;;32.15;38.71;96104.72;5028345;28;19924;-65
2022/06/15 09:50:27;;;;;;;;;;;35.60;30.90;;;32.33;36.72;96101.91;5014212;28;19974;-62
2022/06/15 09:52:59;;;;;;;;;;;35.80;27.90;;;32.56;37.12;96103.22;5029317;28;19928;-62
2022/06/15 09:55:38;;;;;;;;;;;36.10;28.00;;;32.73;35.36;96105.03;5045476;28;19917;-66
2022/06/15 09:58:05;;;;;;;;;;;36.30;25.60;;;32.92;35.93;96107.34;5015484;28;19943;-63
2022/06/15 10:00:31;;;;;;;;;;;36.60;26.50;;;33.10;35.01;96103.38;5022951;28;19925;-62
2022/06/15 10:02:59;;;;;;;;;;;37.00;25.70;;;33.29;34.92;96100.97;5013496;28;20725;-64
2022/06/15 10:05:28;;;;;;;;;;;37.20;25.30;;;33.57;36.25;96097.66;5020328;28;19920;-64
2022/06/15 10:07:54;;;;;;;;;;;37.60;26.10;;;33.90;35.96;96103.09;5022204;28;20152;-64
2022/06/15 10:10:29;;;;;;;;;;;38.00;26.20;;;34.28;34.66;96098.16;5025560;28;19917;-64
2022/06/15 10:12:59;;;;;;;;;;;38.30;25.40;;;34.59;35.17;96094.06;5022386;28;19928;-63
2022/06/15 10:15:39;;;;;;;;;;;38.50;25.30;;;34.94;33.84;96086.16;5025581;28;19955;-62
2022/06/15 10:18:26;;;;;;;;;;;38.80;25.90;;;35.16;33.72;96085.63;5025187;28;19917;-62
2022/06/15 10:21:13;;;;;;;;;;;38.80;23.80;;;35.40;33.39;96092.97;5034466;28;20604;-62
2022/06/15 10:23:39;;;;;;;;;;;38.90;23.10;;;35.65;33.30;96084.66;5040412;28;20308;-65
2022/06/15 10:26:05;;;;;;;;;;;39.50;22.90;;;35.88;31.38;96080.19;5026321;28;19957;-69
2022/06/15 10:28:39;;;;;;;;;;;39.60;21.80;;;36.22;30.61;96089.66;5024128;28;19924;-67
2022/06/15 10:31:12;;;;;;;;;;;40.00;22.20;;;36.54;31.89;96078.69;5038485;28;19929;-67
2022/06/15 10:33:40;;;;;;;;;;;40.30;22.60;;;36.86;31.57;96073.91;5036697;28;20547;-69
2022/06/15 10:36:33;;;;;;;;;;;40.70;22.30;;;37.29;30.69;96090.13;5015993;28;20435;-70
2022/06/15 10:39:06;;;;;;;;;;;41.10;21.40;;;37.61;30.06;96088.03;5036793;28;19916;-67
2022/06/15 10:41:46;;;;;;;;;;;41.50;20.80;;;37.98;29.52;96079.28;5022723;28;19928;-67
2022/06/15 10:44:35;;;;;;;;;;;41.80;20.20;;;38.34;29.04;96079.88;5029109;28;20007;-67
2022/06/15 10:47:18;;;;;;;;;;;42.00;19.20;;;38.60;30.00;96079.88;5018488;28;20004;-67
2022/06/15 10:49:46;;;;;;;;;;;42.00;19.90;;;38.86;28.09;96079.88;5042253;28;19925;-67
2022/06/15 10:52:29;;;;;;;;;;;42.30;19.30;;;39.13;29.21;96071.59;5013671;28;19924;-65
2022/06/15 11:04:25;;;;;;;;;;;42.40;18.40;;;40.08;28.01;96055.34;4984703;28;20375;-65
2022/06/15 11:06:52;;;;;;;;;;;42.40;20.30;;;40.30;26.82;96056.31;5021774;28;20008;-64
2022/06/15 11:09:27;;;;;;;;;;;42.20;19.10;;;40.46;27.88;96050.53;5010524;28;19917;-66
2022/06/15 11:11:53;;;;;;;;;;;42.50;19.80;;;40.64;27.55;96059.72;5005683;28;19925;-63
2022/06/15 11:14:23;;;;;;;;;;;42.60;20.10;;;40.70;26.23;96046.34;4999040;28;19971;-64
2022/06/15 11:19:37;;;;;;;;;;;42.80;19.50;;;41.03;27.15;96042.59;4996223;28;19973;-64
2022/06/15 11:22:11;;;;;;;;;;;42.80;19.90;;;41.13;26.38;96043.81;5025678;28;19968;-65
2022/06/15 11:25:20;;;;;;;;;;;43.10;19.00;;;41.16;25.53;96043.81;5016890;28;20296;-64
2022/06/15 11:27:50;;;;;;;;;;;43.20;19.00;;;41.34;26.37;96043.91;4940913;28;19969;-62
2022/06/15 11:30:31;;;;;;;;;;;43.40;19.50;;;41.37;26.20;96045.88;4952823;28;19918;-63
2022/06/15 11:32:58;;;;;;;;;;;43.20;19.00;;;41.38;25.46;96041.16;4980654;28;20042;-63
2022/06/15 11:35:40;;;;;;;;;;;43.10;19.20;;;41.21;24.97;96037.16;5009427;28;19917;-65
2022/06/15 11:38:15;;;;;;;;;;;42.90;18.50;;;41.28;25.06;96037.19;5012317;28;20304;-64
2022/06/15 11:40:55;;;;;;;;;;;43.20;18.70;;;41.52;25.36;96041.19;5021052;28;19925;-66
2022/06/15 11:43:33;;;;;;;;;;;43.60;19.00;;;41.71;25.79;96048.38;5008959;28;20367;-66
2022/06/15 11:46:11;;;;;;;;;;;43.90;18.40;;;42.03;24.51;96042.84;5028512;28;19931;-64
2022/06/15 11:48:48;;;;;;;;;;;43.90;17.20;;;42.29;23.92;96045.22;5022890;28;20004;-63
2022/06/15 11:51:33;;;;;;;;;;;44.20;17.30;;;42.30;23.60;96044.03;5006589;28;19955;-64